Terminal Aerodrome Forecast
Issued by NWS Louisville, KY

Home | Current Version | Previous Version | Text Only | Print | Product List | Glossary On
Versions: 1 2 3 4 5 6 7 8 9 10 11 12 13 14 15 16 17 18
000
FTUS43 KLMK 220500
TAFLEX
TAF
KLEX 220521Z 2206/2306 20005KT P6SM FEW040 BKN250
     FM221500 25009KT P6SM SCT045
     FM222100 23006KT P6SM VCSH BKN040=

USA.gov is the U.S. government's official web portal to all federal, state and local government web resources and services.